Time;durP1;ratioP1;P1;durP2;ratioP2;P2;SDS_P1;SDS_P2;PMS_P1;PMS_P2;Temp;Humidity;BMP_temperature;BMP_pressure;BME280_temperature;BME280_humidity;BME280_pressure;Samples;Min_cycle;Max_cycle;Signal;HPM_P1;HPM_P2
2022/07/18 00:02:15;;;;;;;0.47;0.47;;;17.40;99.90;;;;;;4446086;32;20077;-61
2022/07/18 00:04:41;;;;;;;0.35;0.35;;;17.40;99.90;;;;;;4445720;32;20513;-61
2022/07/18 00:07:10;;;;;;;0.28;0.28;;;17.50;99.90;;;;;;4445680;32;20108;-65
2022/07/18 00:09:36;;;;;;;0.35;0.35;;;17.60;99.90;;;;;;4445597;32;20081;-64
2022/07/18 00:12:02;;;;;;;0.30;0.30;;;17.70;99.90;;;;;;4445455;32;20122;-62
2022/07/18 00:14:27;;;;;;;0.55;0.55;;;17.80;99.90;;;;;;4444768;32;20072;-64
2022/07/18 00:16:53;;;;;;;0.32;0.32;;;17.80;99.90;;;;;;4445029;32;20169;-62
2022/07/18 00:19:18;;;;;;;0.20;0.20;;;17.80;99.90;;;;;;4445748;32;20073;-62
2022/07/18 00:21:44;;;;;;;2.17;0.90;;;17.80;99.90;;;;;;4432794;32;20061;-61
2022/07/18 00:24:09;;;;;;;0.30;0.30;;;17.70;99.90;;;;;;4425895;32;20877;-61
2022/07/18 00:26:35;;;;;;;0.95;0.47;;;17.70;99.90;;;;;;4427368;32;20060;-61
2022/07/18 00:29:01;;;;;;;0.43;0.43;;;17.60;99.90;;;;;;4430201;32;20068;-62
2022/07/18 00:31:26;;;;;;;0.30;0.30;;;17.70;99.90;;;;;;4428719;32;20077;-62
2022/07/18 00:33:51;;;;;;;1.45;0.55;;;17.70;99.90;;;;;;4429428;32;20477;-62
2022/07/18 00:36:17;;;;;;;0.32;0.30;;;17.70;99.90;;;;;;4429759;32;20078;-62
2022/07/18 00:38:42;;;;;;;0.30;0.30;;;17.70;99.90;;;;;;4429257;32;20902;-63
2022/07/18 00:41:08;;;;;;;0.30;0.30;;;17.80;99.90;;;;;;4427625;32;20061;-62
2022/07/18 00:43:33;;;;;;;6.72;1.60;;;17.70;99.90;;;;;;4431126;32;20121;-62
2022/07/18 00:45:59;;;;;;;0.90;0.35;;;17.60;99.90;;;;;;4445178;32;20068;-61
2022/07/18 00:48:24;;;;;;;0.55;0.40;;;17.60;99.90;;;;;;4444747;32;20069;-61
2022/07/18 00:50:50;;;;;;;0.43;0.43;;;17.60;99.90;;;;;;4440558;32;20482;-61
2022/07/18 00:53:15;;;;;;;0.40;0.40;;;17.60;99.90;;;;;;4424428;32;20082;-61
2022/07/18 00:55:43;;;;;;;0.35;0.35;;;17.70;99.90;;;;;;4424329;32;20591;-63
2022/07/18 00:58:09;;;;;;;0.20;0.20;;;17.60;99.90;;;;;;4428522;32;20073;-62
2022/07/18 01:01:43;;;;;;;0.43;0.40;;;17.70;99.90;;;;;;4427530;32;20061;-62
2022/07/18 01:03:21;;;;;;;0.28;0.28;;;17.60;99.90;;;;;;4417289;32;20494;-63
2022/07/18 01:05:47;;;;;;;4.75;0.85;;;17.50;99.90;;;;;;4426966;32;20081;-62
2022/07/18 01:08:12;;;;;;;0.90;0.50;;;17.30;99.90;;;;;;4429256;32;20081;-62
2022/07/18 01:10:38;;;;;;;3.72;1.87;;;17.40;99.90;;;;;;4429320;32;20428;-62
2022/07/18 01:13:03;;;;;;;0.50;0.50;;;17.50;99.90;;;;;;4429305;32;20073;-62
2022/07/18 01:15:29;;;;;;;0.25;0.25;;;17.50;99.90;;;;;;4428401;32;20064;-62
2022/07/18 01:17:55;;;;;;;0.82;0.22;;;17.50;99.90;;;;;;4428933;32;20139;-62
2022/07/18 01:20:20;;;;;;;0.20;0.20;;;17.40;99.90;;;;;;4427448;32;20082;-62
2022/07/18 01:22:45;;;;;;;1.67;0.55;;;17.40;99.90;;;;;;4407440;32;20124;-62
2022/07/18 01:25:12;;;;;;;0.93;0.50;;;17.30;99.90;;;;;;4425683;32;20394;-62
2022/07/18 01:27:38;;;;;;;0.20;0.20;;;17.20;99.90;;;;;;4442910;32;20123;-62
2022/07/18 01:30:05;;;;;;;1.35;0.77;;;17.20;99.90;;;;;;4444214;32;20061;-62
2022/07/18 01:32:30;;;;;;;0.22;0.22;;;17.20;99.90;;;;;;4441315;32;80221;-62
2022/07/18 01:34:56;;;;;;;0.22;0.22;;;17.20;99.90;;;;;;4438672;32;20360;-62
2022/07/18 01:37:22;;;;;;;0.35;0.35;;;17.20;99.90;;;;;;4429064;32;20065;-62
2022/07/18 01:39:48;;;;;;;0.20;0.20;;;17.10;99.90;;;;;;4428370;32;20057;-62
2022/07/18 01:42:14;;;;;;;0.55;0.52;;;17.10;99.90;;;;;;4427583;32;20435;-63
2022/07/18 01:44:40;;;;;;;0.30;0.30;;;17.00;99.90;;;;;;4431193;32;20057;-62
2022/07/18 01:47:07;;;;;;;0.65;0.40;;;16.90;99.90;;;;;;4444029;32;20503;-62
2022/07/18 01:49:34;;;;;;;4.40;0.57;;;16.90;99.90;;;;;;4443449;32;20528;-62
2022/07/18 01:52:00;;;;;;;0.40;0.40;;;16.90;99.90;;;;;;4428990;32;20098;-62
2022/07/18 01:54:29;;;;;;;0.30;0.30;;;16.90;99.90;;;;;;4426159;32;20523;-62
2022/07/18 01:56:56;;;;;;;0.20;0.20;;;16.80;99.90;;;;;;4441843;32;20065;-62
2022/07/18 01:59:22;;;;;;;0.22;0.22;;;16.80;99.90;;;;;;4444287;32;20109;-61
2022/07/18 02:01:48;;;;;;;1.45;0.82;;;16.80;99.90;;;;;;4444464;32;20120;-62
2022/07/18 02:04:13;;;;;;;0.30;0.30;;;16.60;99.90;;;;;;4443464;32;20342;-63
2022/07/18 02:06:39;;;;;;;0.28;0.28;;;16.60;99.90;;;;;;4446605;32;20081;-62
2022/07/18 02:09:06;;;;;;;0.40;0.40;;;16.60;99.90;;;;;;4446043;32;20064;-62
2022/07/18 02:11:32;;;;;;;0.62;0.40;;;16.60;99.90;;;;;;4447082;32;20065;-63
2022/07/18 02:13:57;;;;;;;2.28;0.68;;;16.60;99.90;;;;;;4447426;32;20064;-62
2022/07/18 02:16:23;;;;;;;0.30;0.30;;;16.50;99.90;;;;;;4446852;32;20446;-63
2022/07/18 02:18:48;;;;;;;5.40;0.65;;;16.20;99.90;;;;;;4446216;32;20074;-63
2022/07/18 02:21:14;;;;;;;0.60;0.60;;;16.10;99.90;;;;;;4438878;32;20073;-62
2022/07/18 02:23:40;;;;;;;1.10;0.40;;;16.10;99.90;;;;;;4427132;32;20073;-61
2022/07/18 02:26:07;;;;;;;0.85;0.50;;;16.10;99.90;;;;;;4440486;32;20076;-61
2022/07/18 02:28:32;;;;;;;0.30;0.30;;;16.10;99.90;;;;;;4446770;32;20101;-62
2022/07/18 02:30:58;;;;;;;0.80;0.50;;;16.10;99.90;;;;;;4447056;32;20119;-62
2022/07/18 02:33:23;;;;;;;1.00;0.90;;;16.00;99.90;;;;;;4446767;32;20132;-62
2022/07/18 02:35:49;;;;;;;0.20;0.20;;;16.00;99.90;;;;;;4434852;32;20069;-62
2022/07/18 02:38:14;;;;;;;1.92;0.65;;;16.10;99.90;;;;;;4430743;32;20069;-62
2022/07/18 02:40:40;;;;;;;0.40;0.40;;;16.00;99.90;;;;;;4430986;32;20173;-63
2022/07/18 02:43:05;;;;;;;2.72;0.45;;;15.90;99.90;;;;;;4431649;32;20566;-62
2022/07/18 02:45:31;;;;;;;0.88;0.88;;;15.90;99.90;;;;;;4429342;32;20120;-62
2022/07/18 02:47:56;;;;;;;0.25;0.25;;;15.90;99.90;;;;;;4431481;32;20065;-62
2022/07/18 02:50:22;;;;;;;0.30;0.30;;;16.00;99.90;;;;;;4429308;32;20176;-62
2022/07/18 02:52:50;;;;;;;0.40;0.40;;;16.00;99.90;;;;;;4410367;32;20086;-62
2022/07/18 02:55:15;;;;;;;0.32;0.32;;;15.70;99.90;;;;;;4428792;32;20081;-62
2022/07/18 02:57:41;;;;;;;0.20;0.20;;;15.50;99.90;;;;;;4445850;32;20065;-62
2022/07/18 03:00:09;;;;;;;0.77;0.77;;;15.40;99.90;;;;;;4446814;32;20065;-62
2022/07/18 03:02:35;;;;;;;0.32;0.32;;;15.40;99.90;;;;;;4445843;32;20065;-62
2022/07/18 03:05:01;;;;;;;0.45;0.45;;;15.40;99.90;;;;;;4446256;32;20085;-62
2022/07/18 03:07:27;;;;;;;0.40;0.40;;;15.50;99.90;;;;;;4445410;32;20070;-62
2022/07/18 03:09:52;;;;;;;0.40;0.40;;;15.40;99.90;;;;;;4445160;32;20088;-62
2022/07/18 03:12:18;;;;;;;0.32;0.32;;;15.40;99.90;;;;;;4445547;32;20064;-62
2022/07/18 03:14:44;;;;;;;0.30;0.30;;;15.30;99.90;;;;;;4443933;32;20137;-62
2022/07/18 03:17:10;;;;;;;0.15;0.15;;;15.40;99.90;;;;;;4445293;32;20069;-62
2022/07/18 03:19:35;;;;;;;0.20;0.20;;;15.40;99.90;;;;;;4444161;32;20065;-62
2022/07/18 03:22:02;;;;;;;0.30;0.30;;;15.50;99.90;;;;;;4429721;32;20064;-62
2022/07/18 03:24:28;;;;;;;0.40;0.40;;;15.50;99.90;;;;;;4423664;32;20057;-62
2022/07/18 03:26:53;;;;;;;0.70;0.50;;;15.50;99.90;;;;;;4429620;32;20068;-62
2022/07/18 03:29:19;;;;;;;2.45;0.85;;;15.40;99.90;;;;;;4428577;32;20061;-62
2022/07/18 03:31:44;;;;;;;0.37;0.37;;;15.40;99.90;;;;;;4433200;32;20459;-62
2022/07/18 03:34:10;;;;;;;0.50;0.43;;;15.30;99.90;;;;;;4445866;32;20492;-62
2022/07/18 03:36:36;;;;;;;0.30;0.30;;;15.30;99.90;;;;;;4445079;32;20538;-62
2022/07/18 03:39:02;;;;;;;0.43;0.43;;;15.40;99.90;;;;;;4445177;32;20073;-62
2022/07/18 03:41:28;;;;;;;0.35;0.35;;;15.40;99.90;;;;;;4444883;32;20068;-62
2022/07/18 03:43:53;;;;;;;0.32;0.32;;;15.40;99.90;;;;;;4446001;32;20081;-62
2022/07/18 03:46:19;;;;;;;0.30;0.30;;;15.30;99.90;;;;;;4446073;32;20102;-62
2022/07/18 03:48:44;;;;;;;0.43;0.35;;;15.40;99.90;;;;;;4445036;32;20415;-62
2022/07/18 03:51:10;;;;;;;0.37;0.37;;;15.50;99.90;;;;;;4437724;32;20088;-62
2022/07/18 03:53:35;;;;;;;0.30;0.30;;;15.60;99.90;;;;;;4423135;32;20092;-62
2022/07/18 03:56:01;;;;;;;0.30;0.30;;;15.50;99.90;;;;;;4440137;32;20065;-61
2022/07/18 03:58:26;;;;;;;0.40;0.40;;;15.50;99.90;;;;;;4444892;32;20469;-62
2022/07/18 04:00:52;;;;;;;0.37;0.37;;;15.30;99.90;;;;;;4444955;32;20072;-62
2022/07/18 04:03:18;;;;;;;0.20;0.20;;;15.30;99.90;;;;;;4444752;32;20531;-61
2022/07/18 04:05:44;;;;;;;3.47;0.62;;;15.30;99.90;;;;;;4445420;32;20078;-61
2022/07/18 04:08:10;;;;;;;0.68;0.55;;;15.40;99.90;;;;;;4444537;32;20061;-62
2022/07/18 04:10:39;;;;;;;6.50;0.90;;;15.50;99.90;;;;;;4445143;32;20092;-62
2022/07/18 04:13:05;;;;;;;3.75;1.08;;;15.50;99.90;;;;;;4443703;32;20053;-62
2022/07/18 04:15:31;;;;;;;0.40;0.40;;;15.60;99.90;;;;;;4435924;32;20085;-61
2022/07/18 04:17:56;;;;;;;0.80;0.57;;;15.60;99.90;;;;;;4436413;32;20061;-61
2022/07/18 04:20:22;;;;;;;2.05;0.88;;;15.60;99.90;;;;;;4431989;32;20076;-62
2022/07/18 04:22:51;;;;;;;0.95;0.70;;;15.60;99.90;;;;;;4409452;32;20060;-61
2022/07/18 04:25:17;;;;;;;0.30;0.30;;;15.70;99.90;;;;;;4418370;32;20106;-61
2022/07/18 04:27:43;;;;;;;0.28;0.28;;;15.80;99.90;;;;;;4427545;32;20061;-61
2022/07/18 04:30:10;;;;;;;0.43;0.43;;;15.90;99.90;;;;;;4436835;32;20118;-62
2022/07/18 04:32:36;;;;;;;16.70;0.80;;;15.90;99.90;;;;;;4432580;32;20077;-61
2022/07/18 04:35:01;;;;;;;0.45;0.45;;;16.00;99.90;;;;;;4435741;32;20086;-61
2022/07/18 04:37:30;;;;;;;0.20;0.20;;;16.00;99.90;;;;;;4444029;32;20061;-62
2022/07/18 04:39:56;;;;;;;0.30;0.30;;;16.10;99.90;;;;;;4444509;32;20084;-61
2022/07/18 04:42:21;;;;;;;0.52;0.52;;;16.10;99.90;;;;;;4430619;32;20060;-61
2022/07/18 04:44:46;;;;;;;0.47;0.40;;;16.10;99.90;;;;;;4439741;32;20407;-65
2022/07/18 04:47:12;;;;;;;0.30;0.30;;;16.20;99.90;;;;;;4441766;32;20123;-64
2022/07/18 04:49:37;;;;;;;0.22;0.22;;;16.20;99.90;;;;;;4436496;32;20128;-64
2022/07/18 04:52:03;;;;;;;0.30;0.30;;;16.30;99.90;;;;;;4419396;32;20085;-64
2022/07/18 04:54:28;;;;;;;0.37;0.37;;;16.30;99.90;;;;;;4417175;32;20543;-61
2022/07/18 04:56:54;;;;;;;1.35;0.68;;;16.40;99.90;;;;;;4437235;32;20133;-61
2022/07/18 04:59:19;;;;;;;0.32;0.30;;;16.40;99.90;;;;;;4433570;32;20087;-61
2022/07/18 05:01:45;;;;;;;0.57;0.50;;;16.50;99.90;;;;;;4435897;32;20065;-64
2022/07/18 05:04:10;;;;;;;0.40;0.40;;;16.50;99.90;;;;;;4423348;32;20073;-61
2022/07/18 05:06:36;;;;;;;0.43;0.43;;;16.60;99.90;;;;;;4427055;32;20524;-61
2022/07/18 05:09:01;;;;;;;1.27;0.85;;;16.60;99.90;;;;;;4421092;32;20165;-61
2022/07/18 05:11:27;;;;;;;3.03;1.05;;;16.70;99.90;;;;;;4421560;32;20164;-64
2022/07/18 05:13:52;;;;;;;0.40;0.40;;;16.80;99.90;;;;;;4425718;32;20773;-64
2022/07/18 05:16:18;;;;;;;0.30;0.30;;;16.80;99.90;;;;;;4434301;32;20388;-63
2022/07/18 05:18:43;;;;;;;0.55;0.40;;;17.00;99.90;;;;;;4432293;32;20120;-63
2022/07/18 05:21:09;;;;;;;0.50;0.40;;;17.00;99.90;;;;;;4422366;32;20648;-63
2022/07/18 05:23:34;;;;;;;0.20;0.20;;;17.10;99.90;;;;;;4404348;32;20223;-63
2022/07/18 05:26:00;;;;;;;0.37;0.37;;;17.20;99.90;;;;;;4429614;32;20060;-64
2022/07/18 05:28:25;;;;;;;0.40;0.40;;;17.20;99.90;;;;;;4437813;32;20429;-62
2022/07/18 05:30:50;;;;;;;1.75;1.17;;;17.30;99.90;;;;;;4424776;32;20065;-62
2022/07/18 05:33:16;;;;;;;0.30;0.30;;;17.40;99.90;;;;;;4419796;32;20070;-61
2022/07/18 05:35:41;;;;;;;0.30;0.30;;;17.50;99.90;;;;;;4425838;32;20438;-63
2022/07/18 05:38:07;;;;;;;0.73;0.73;;;17.60;99.90;;;;;;4434242;32;20513;-64
2022/07/18 05:40:33;;;;;;;0.30;0.30;;;17.70;99.90;;;;;;4446967;32;20523;-63
2022/07/18 05:42:58;;;;;;;0.20;0.20;;;17.70;99.90;;;;;;4431800;32;20214;-63
2022/07/18 05:45:24;;;;;;;0.57;0.57;;;17.80;99.90;;;;;;4425289;32;20077;-63
2022/07/18 05:47:50;;;;;;;0.30;0.30;;;17.90;99.90;;;;;;4433906;32;20085;-64
2022/07/18 05:50:16;;;;;;;0.30;0.30;;;18.00;99.90;;;;;;4437244;32;20057;-63
2022/07/18 05:52:41;;;;;;;0.30;0.30;;;18.00;99.90;;;;;;4396328;32;20502;-63
2022/07/18 05:55:07;;;;;;;1.25;0.57;;;18.10;99.90;;;;;;4422703;32;20081;-63
2022/07/18 05:57:33;;;;;;;1.25;0.73;;;18.20;99.90;;;;;;4434542;32;20128;-63
2022/07/18 05:59:58;;;;;;;0.20;0.20;;;18.20;99.90;;;;;;4433589;32;20073;-63
2022/07/18 06:02:24;;;;;;;0.30;0.30;;;18.30;99.90;;;;;;4424602;32;20105;-62
2022/07/18 06:04:49;;;;;;;0.50;0.50;;;18.40;99.90;;;;;;4435974;32;20489;-63
2022/07/18 06:07:15;;;;;;;0.28;0.28;;;18.60;99.90;;;;;;4441286;32;20080;-63
2022/07/18 06:09:40;;;;;;;0.62;0.60;;;18.60;99.90;;;;;;4433568;32;20409;-63
2022/07/18 06:12:06;;;;;;;0.25;0.25;;;18.70;99.90;;;;;;4441579;32;20089;-63
2022/07/18 06:14:32;;;;;;;0.70;0.50;;;18.80;99.90;;;;;;4435931;32;20069;-63
2022/07/18 06:16:58;;;;;;;2.30;0.40;;;18.80;99.90;;;;;;4435532;32;20081;-64
2022/07/18 06:19:24;;;;;;;0.25;0.25;;;18.90;99.90;;;;;;4430214;32;20078;-63
2022/07/18 06:21:50;;;;;;;0.30;0.30;;;19.00;99.90;;;;;;4417963;32;20517;-63
2022/07/18 06:24:16;;;;;;;9.35;2.15;;;19.10;99.90;;;;;;4417034;32;20078;-63
2022/07/18 06:26:41;;;;;;;0.45;0.45;;;19.20;99.90;;;;;;4429232;32;20789;-63
2022/07/18 06:29:07;;;;;;;0.30;0.30;;;19.30;99.90;;;;;;4430292;32;20061;-63
2022/07/18 06:31:32;;;;;;;0.40;0.40;;;19.40;99.90;;;;;;4421923;32;20160;-63
2022/07/18 06:33:58;;;;;;;0.40;0.40;;;19.40;99.90;;;;;;4422603;32;20582;-63
2022/07/18 06:36:23;;;;;;;0.30;0.30;;;19.50;99.90;;;;;;4444983;32;20073;-63
2022/07/18 06:38:51;;;;;;;0.62;0.57;;;19.60;99.90;;;;;;4446428;32;20068;-62
2022/07/18 06:41:17;;;;;;;2.35;0.47;;;19.70;99.90;;;;;;4442004;32;20101;-64
2022/07/18 06:43:43;;;;;;;0.30;0.30;;;19.80;99.90;;;;;;4419812;32;20065;-63
2022/07/18 06:46:08;;;;;;;0.85;0.68;;;19.90;99.90;;;;;;4433419;32;20480;-63
2022/07/18 06:48:35;;;;;;;0.30;0.30;;;20.00;99.90;;;;;;4430786;32;20073;-63
2022/07/18 06:51:02;;;;;;;0.20;0.20;;;20.10;99.90;;;;;;4424178;32;20553;-62
2022/07/18 06:53:28;;;;;;;0.20;0.20;;;20.10;99.90;;;;;;4414112;32;20081;-62
2022/07/18 06:55:54;;;;;;;0.20;0.20;;;20.20;99.90;;;;;;4423803;32;20068;-64
2022/07/18 06:58:19;;;;;;;0.20;0.20;;;20.30;99.90;;;;;;4431231;32;20131;-63
2022/07/18 07:00:45;;;;;;;0.32;0.32;;;20.40;99.90;;;;;;4425767;32;20466;-62
2022/07/18 07:03:10;;;;;;;0.22;0.22;;;20.40;99.90;;;;;;4420386;32;20062;-64
2022/07/18 07:05:36;;;;;;;0.25;0.25;;;20.60;99.90;;;;;;4427832;32;20068;-63
2022/07/18 07:08:01;;;;;;;0.30;0.30;;;20.70;99.90;;;;;;4444749;32;20112;-64
2022/07/18 07:10:27;;;;;;;0.20;0.20;;;20.80;99.90;;;;;;4444863;32;20115;-62
2022/07/18 07:12:52;;;;;;;1.75;1.10;;;20.80;99.90;;;;;;4439954;32;20069;-61
2022/07/18 07:15:20;;;;;;;0.20;0.20;;;20.90;99.40;;;;;;4435903;32;20436;-62
2022/07/18 07:17:46;;;;;;;0.55;0.55;;;20.90;99.00;;;;;;4445240;32;20198;-63
2022/07/18 07:20:12;;;;;;;0.32;0.32;;;21.00;99.20;;;;;;4445045;32;20091;-62
2022/07/18 07:22:47;;;;;;;1.33;0.93;;;21.00;98.80;;;;;;4426139;32;20077;-61
2022/07/18 07:25:13;;;;;;;0.30;0.30;;;21.10;98.90;;;;;;4419279;32;20066;-62
2022/07/18 07:27:40;;;;;;;0.30;0.30;;;21.20;98.40;;;;;;4416076;32;20175;-63
2022/07/18 07:30:06;;;;;;;0.20;0.20;;;21.40;98.60;;;;;;4427687;32;20589;-63
2022/07/18 07:32:35;;;;;;;0.20;0.20;;;21.50;97.70;;;;;;4418378;32;20107;-62
2022/07/18 07:35:03;;;;;;;0.40;0.40;;;21.50;97.50;;;;;;4425141;32;20084;-62
2022/07/18 07:37:28;;;;;;;0.20;0.20;;;21.70;97.50;;;;;;4430254;32;20116;-62
2022/07/18 07:39:55;;;;;;;0.30;0.30;;;21.80;96.30;;;;;;4429997;32;20529;-63
2022/07/18 07:42:20;;;;;;;5.00;0.60;;;21.90;96.10;;;;;;4426457;32;20066;-63
2022/07/18 07:44:45;;;;;;;0.65;0.47;;;21.90;96.00;;;;;;4421674;32;20453;-62
2022/07/18 07:47:11;;;;;;;0.22;0.22;;;22.00;95.90;;;;;;4442817;32;20077;-62
2022/07/18 07:49:36;;;;;;;0.30;0.30;;;22.10;95.80;;;;;;4446225;32;20060;-62
2022/07/18 07:52:02;;;;;;;0.20;0.20;;;22.20;95.30;;;;;;4430873;32;20488;-62
2022/07/18 07:54:27;;;;;;;0.20;0.20;;;22.40;95.00;;;;;;4428119;32;20508;-62
2022/07/18 07:56:53;;;;;;;0.20;0.20;;;22.50;94.30;;;;;;4445286;32;20196;-63
2022/07/18 07:59:18;;;;;;;0.40;0.40;;;22.70;94.00;;;;;;4444516;32;20065;-63
2022/07/18 08:01:44;;;;;;;0.30;0.30;;;22.80;93.70;;;;;;4434792;32;20119;-62
2022/07/18 08:04:09;;;;;;;0.30;0.30;;;23.00;93.50;;;;;;4435795;32;20064;-63
2022/07/18 08:06:35;;;;;;;0.28;0.28;;;23.10;93.10;;;;;;4435263;32;20061;-63
2022/07/18 08:09:00;;;;;;;0.20;0.20;;;23.10;91.60;;;;;;4434085;32;20085;-63
2022/07/18 08:11:26;;;;;;;1.08;0.57;;;23.10;92.30;;;;;;4434689;32;20504;-62
2022/07/18 08:13:53;;;;;;;0.47;0.47;;;23.10;92.00;;;;;;4427845;32;20077;-62
2022/07/18 08:16:19;;;;;;;0.20;0.20;;;23.30;91.90;;;;;;4436774;32;20123;-62
2022/07/18 08:18:44;;;;;;;0.52;0.52;;;23.40;91.50;;;;;;4432757;32;20596;-62
2022/07/18 08:21:10;;;;;;;0.37;0.37;;;23.50;91.70;;;;;;4427771;32;20086;-62
2022/07/18 08:23:36;;;;;;;4.57;0.62;;;23.60;91.30;;;;;;4416082;32;20131;-62
2022/07/18 08:26:03;;;;;;;0.20;0.20;;;23.70;90.60;;;;;;4425227;32;20567;-62
2022/07/18 08:28:28;;;;;;;0.13;0.13;;;23.80;90.80;;;;;;4430890;32;20086;-63
2022/07/18 08:30:54;;;;;;;0.30;0.30;;;23.80;90.20;;;;;;4431113;32;20070;-63
2022/07/18 08:33:19;;;;;;;0.40;0.37;;;23.60;89.40;;;;;;4420210;32;20074;-62
2022/07/18 08:35:45;;;;;;;0.35;0.32;;;23.70;89.40;;;;;;4426954;32;20085;-62
2022/07/18 08:38:10;;;;;;;0.30;0.30;;;23.70;89.30;;;;;;4430097;32;20147;-63
2022/07/18 08:40:37;;;;;;;1.20;0.62;;;23.70;88.50;;;;;;4432997;32;20061;-64
2022/07/18 08:43:03;;;;;;;0.20;0.20;;;23.70;87.20;;;;;;4420636;32;20061;-63
2022/07/18 08:45:29;;;;;;;0.30;0.30;;;23.70;88.30;;;;;;4434103;32;20116;-63
2022/07/18 08:47:54;;;;;;;2.00;0.32;;;23.70;88.00;;;;;;4444058;32;20066;-63
2022/07/18 08:50:20;;;;;;;0.20;0.20;;;23.70;88.20;;;;;;4442219;32;20168;-63
2022/07/18 08:52:46;;;;;;;4.68;0.52;;;23.70;88.00;;;;;;4424489;32;20527;-63
2022/07/18 08:55:14;;;;;;;0.43;0.43;;;23.80;87.70;;;;;;4415789;32;20061;-62
2022/07/18 08:57:39;;;;;;;1.20;0.95;;;23.90;87.70;;;;;;4427391;32;20082;-63
2022/07/18 09:00:06;;;;;;;0.40;0.40;;;24.00;88.10;;;;;;4426901;32;20061;-62
2022/07/18 09:02:32;;;;;;;0.85;0.60;;;24.10;85.80;;;;;;4415457;32;20073;-62
2022/07/18 09:05:01;;;;;;;0.20;0.20;;;24.30;86.50;;;;;;4422417;32;20077;-63
2022/07/18 09:07:28;;;;;;;2.40;0.60;;;24.20;86.10;;;;;;4428767;32;20088;-63
2022/07/18 09:09:57;;;;;;;0.45;0.45;;;24.30;84.90;;;;;;4415383;32;20112;-63
2022/07/18 09:12:22;;;;;;;0.20;0.20;;;24.40;86.50;;;;;;4422480;32;20409;-63
2022/07/18 09:14:48;;;;;;;0.20;0.20;;;24.50;84.60;;;;;;4418538;32;20582;-62
2022/07/18 09:17:18;;;;;;;0.35;0.35;;;24.50;82.90;;;;;;4426545;32;20085;-62
2022/07/18 09:20:07;;;;;;;0.45;0.40;;;24.60;83.40;;;;;;4415193;32;20078;-62
2022/07/18 09:22:34;;;;;;;0.20;0.20;;;24.70;84.30;;;;;;4410117;32;20087;-62
2022/07/18 09:25:07;;;;;;;0.40;0.40;;;24.60;83.30;;;;;;4430351;32;20068;-62
2022/07/18 09:27:51;;;;;;;0.85;0.60;;;24.60;82.70;;;;;;4444425;32;20069;-62
2022/07/18 09:30:21;;;;;;;0.35;0.35;;;24.60;83.50;;;;;;4440711;32;20085;-63
2022/07/18 09:32:51;;;;;;;0.20;0.20;;;24.60;83.60;;;;;;4423099;32;20082;-62
2022/07/18 09:35:21;;;;;;;0.50;0.50;;;24.70;83.50;;;;;;4440587;32;20516;-61
2022/07/18 09:38:08;;;;;;;0.85;0.45;;;24.90;82.00;;;;;;4428371;32;20113;-61
2022/07/18 09:40:39;;;;;;;0.73;0.73;;;25.20;82.10;;;;;;4416969;32;20073;-61
2022/07/18 09:43:06;;;;;;;0.10;0.10;;;25.30;80.50;;;;;;4406582;32;20124;-61
2022/07/18 09:45:37;;;;;;;0.52;0.52;;;25.40;80.50;;;;;;4408925;32;20093;-61
2022/07/18 09:48:05;;;;;;;;;;;25.60;79.70;;;;;;4427789;32;20074;-62
2022/07/18 09:50:33;;;;;;;0.88;0.47;;;25.60;79.00;;;;;;4426350;32;20349;-61
2022/07/18 09:53:16;;;;;;;0.47;0.30;;;25.60;79.70;;;;;;4410995;32;20434;-62
2022/07/18 09:55:44;;;;;;;5.18;0.80;;;25.80;79.70;;;;;;4409595;32;20062;-61
2022/07/18 09:58:10;;;;;;;0.22;0.20;;;25.90;79.90;;;;;;4443470;32;20142;-62
2022/07/18 10:00:38;;;;;;;0.22;0.22;;;25.70;79.60;;;;;;4440132;32;20056;-61
2022/07/18 10:03:06;;;;;;;4.28;0.88;;;25.70;81.10;;;;;;4402229;32;20054;-61
2022/07/18 10:05:33;;;;;;;0.40;0.40;;;25.90;78.90;;;;;;4440487;32;20057;-62
2022/07/18 10:08:00;;;;;;;0.30;0.30;;;25.90;77.70;;;;;;4436975;32;20143;-61
2022/07/18 10:10:28;;;;;;;0.88;0.57;;;26.00;78.50;;;;;;4421670;32;20433;-62
2022/07/18 10:12:55;;;;;;;0.20;0.20;;;26.10;78.30;;;;;;4421361;32;20058;-62
2022/07/18 10:15:23;;;;;;;0.10;0.10;;;26.20;77.90;;;;;;4432545;32;20140;-62
2022/07/18 10:17:50;;;;;;;0.52;0.35;;;26.40;77.20;;;;;;4428463;32;20135;-61
2022/07/18 10:20:16;;;;;;;0.10;0.10;;;26.50;76.90;;;;;;4443250;32;20069;-61
2022/07/18 10:22:43;;;;;;;0.28;0.28;;;26.50;75.20;;;;;;4423525;32;20073;-61
2022/07/18 10:25:10;;;;;;;0.10;0.10;;;26.50;76.50;;;;;;4417652;32;20077;-61
2022/07/18 10:28:00;;;;;;;0.68;0.40;;;26.40;76.40;;;;;;4419218;32;20068;-61
2022/07/18 10:30:33;;;;;;;0.17;0.17;;;26.50;76.30;;;;;;4426362;32;20073;-61
2022/07/18 10:33:00;;;;;;;0.45;0.45;;;26.50;75.70;;;;;;4418828;32;20105;-61
2022/07/18 10:35:58;;;;;;;1.12;0.50;;;26.50;75.60;;;;;;4427237;32;20068;-61
2022/07/18 10:38:23;;;;;;;1.00;0.73;;;26.70;76.10;;;;;;4421517;32;20240;-61
2022/07/18 10:41:10;;;;;;;0.20;0.20;;;26.80;74.60;;;;;;4446117;32;20068;-62
2022/07/18 10:43:38;;;;;;;0.30;0.30;;;26.80;74.40;;;;;;4424568;32;20064;-61
2022/07/18 10:46:05;;;;;;;2.60;1.20;;;27.10;74.60;;;;;;4410387;32;20069;-61
2022/07/18 10:48:47;;;;;;;4.32;0.82;;;27.30;73.60;;;;;;4445550;32;20077;-62
2022/07/18 10:51:16;;;;;;;4.22;1.45;;;27.30;73.70;;;;;;4411284;32;20086;-61
2022/07/18 10:54:03;;;;;;;0.17;0.17;;;27.40;73.40;;;;;;4424162;32;20528;-61
2022/07/18 10:56:38;;;;;;;0.47;0.47;;;27.40;71.90;;;;;;4415274;32;20066;-62
2022/07/18 10:59:22;;;;;;;0.40;0.40;;;27.50;73.70;;;;;;4430452;32;20402;-62
2022/07/18 11:01:51;;;;;;;0.20;0.20;;;27.70;70.20;;;;;;4411348;32;20080;-61
2022/07/18 11:04:35;;;;;;;0.20;0.20;;;27.70;71.60;;;;;;4409295;32;20080;-62
2022/07/18 11:07:13;;;;;;;0.20;0.20;;;28.10;72.20;;;;;;4417849;32;20174;-62
2022/07/18 11:09:40;;;;;;;0.10;0.10;;;28.40;70.70;;;;;;4431526;32;20057;-61
2022/07/18 11:12:25;;;;;;;0.30;0.30;;;28.60;70.40;;;;;;4442993;32;20070;-60
2022/07/18 11:15:10;;;;;;;0.30;0.30;;;28.70;68.90;;;;;;4421133;32;20076;-60
2022/07/18 11:17:55;;;;;;;0.45;0.45;;;28.80;70.00;;;;;;4443852;32;20139;-62
2022/07/18 11:20:24;;;;;;;0.10;0.10;;;28.80;66.80;;;;;;4443918;32;20060;-61
2022/07/18 11:22:50;;;;;;;0.20;0.20;;;28.90;67.00;;;;;;4421736;32;20455;-61
2022/07/18 11:25:18;;;;;;;0.10;0.10;;;29.00;67.30;;;;;;4405276;32;20587;-60
2022/07/18 11:27:44;;;;;;;0.10;0.10;;;29.00;66.00;;;;;;4415722;32;20406;-61
2022/07/18 11:30:15;;;;;;;0.30;0.30;;;28.90;65.70;;;;;;4401644;32;20053;-61
2022/07/18 11:32:41;;;;;;;0.10;0.10;;;28.70;66.40;;;;;;4403708;32;20076;-61
2022/07/18 11:35:08;;;;;;;0.20;0.20;;;28.90;67.50;;;;;;4424836;32;20057;-61
2022/07/18 11:37:35;;;;;;;0.30;0.30;;;29.20;67.00;;;;;;4432196;32;20081;-61
2022/07/18 11:40:09;;;;;;;2.10;0.15;;;29.60;67.90;;;;;;4431373;32;20441;-62
2022/07/18 11:42:37;;;;;;;0.10;0.10;;;29.90;67.00;;;;;;4439982;32;20109;-61
2022/07/18 11:45:04;;;;;;;0.50;0.40;;;30.20;66.70;;;;;;4414753;32;20584;-62
2022/07/18 11:47:29;;;;;;;0.37;0.17;;;29.80;63.60;;;;;;4427461;32;20076;-61
2022/07/18 11:49:56;;;;;;;0.10;0.10;;;29.30;63.80;;;;;;4429979;32;20069;-61
2022/07/18 11:52:21;;;;;;;0.30;0.30;;;29.10;65.00;;;;;;4399226;32;20156;-61
2022/07/18 11:54:47;;;;;;;0.50;0.22;;;28.90;65.60;;;;;;4403296;32;20128;-61
2022/07/18 11:57:12;;;;;;;0.57;0.40;;;28.80;64.90;;;;;;4445616;32;20467;-61
2022/07/18 11:59:41;;;;;;;0.60;0.10;;;28.60;66.10;;;;;;4425359;32;20269;-61
2022/07/18 12:02:08;;;;;;;0.10;0.10;;;28.60;65.40;;;;;;4418140;32;20394;-61
2022/07/18 12:04:33;;;;;;;0.05;0.05;;;28.60;66.10;;;;;;4421407;32;20094;-61
2022/07/18 12:07:18;;;;;;;0.32;0.32;;;29.10;67.00;;;;;;4419182;32;20057;-62
2022/07/18 12:09:45;;;;;;;0.75;0.25;;;29.20;66.50;;;;;;4403183;32;20077;-62
2022/07/18 12:12:12;;;;;;;0.00;0.00;;;29.40;65.70;;;;;;4399776;32;20078;-61
2022/07/18 12:14:38;;;;;;;1.17;0.57;;;29.60;64.60;;;;;;4404989;32;20675;-63
2022/07/18 12:17:04;;;;;;;0.15;0.15;;;29.60;64.40;;;;;;4410749;32;20060;-61
2022/07/18 12:19:36;;;;;;;1.77;0.70;;;29.70;65.30;;;;;;4403670;32;20081;-61
2022/07/18 12:22:07;;;;;;;1.87;0.20;;;29.90;64.60;;;;;;4389752;32;20471;-62
2022/07/18 12:24:38;;;;;;;0.10;0.10;;;30.20;65.10;;;;;;4413286;32;20065;-61
2022/07/18 12:27:16;;;;;;;0.20;0.20;;;30.20;65.30;;;;;;4431833;32;20426;-61
2022/07/18 12:30:04;;;;;;;0.43;0.40;;;30.50;62.30;;;;;;4424846;32;20058;-62
2022/07/18 12:32:38;;;;;;;0.10;0.10;;;30.80;62.80;;;;;;4404425;32;20093;-61
2022/07/18 12:35:07;;;;;;;0.20;0.20;;;31.10;62.30;;;;;;4421867;32;20065;-62
2022/07/18 12:37:33;;;;;;;0.10;0.10;;;30.90;62.30;;;;;;4429094;32;20060;-62
2022/07/18 12:40:01;;;;;;;0.10;0.10;;;30.20;63.60;;;;;;4430004;32;20081;-62
2022/07/18 12:42:36;;;;;;;0.10;0.10;;;29.70;63.80;;;;;;4411123;32;20589;-61
2022/07/18 12:45:03;;;;;;;0.20;0.20;;;29.40;66.50;;;;;;4422503;32;20069;-61
2022/07/18 12:47:29;;;;;;;0.00;0.00;;;29.30;65.40;;;;;;4415785;32;20061;-61
2022/07/18 12:49:55;;;;;;;0.20;0.17;;;29.50;65.20;;;;;;4431209;32;20056;-61